Sugar Grove, Pennsylvania
Current Conditions -  °F | °C
As of 9:15 PM on Monday 22 Dec 2014 (Local Time) from KJHW Reporting Station
Broken Clouds Broken Clouds  
Wind Chill: 20°   Ceiling: 1200
Heat Index: 30°   Visibility: 10mi
Dew Point: 25°   Wind: 13mph
Humidity: 80%   Direction: 160°SSE
Pressure: 29.99"   Gusts: 16mph
Location:  41.98°N, 79.34°W
Report Text: KJHW 230215Z 16011G14KT 10SM BKN012 M01/M04 A2999 RMK AO1
Loading
Personal Weather Stations






























Interactive Weather Map New forecast layout! Learn more

10-Day Weather Forecast

Advertisements
Track Severe Weather on mobile